Metar Aviation Weather Data ENHD

13°C Temp
11°C Dewpoint
% Humidity
Temperature
5 KM/H
3 MPH
3 KTS
210°
South South
West

Wind Speed
Light Rain
Showers
Pressure 1007.92 (hPa) - 29.76 (in)
Visibility 6.2 (mi) - 10 (km)

Current Conditions
ENHD
Metar :ENHD 191620Z 21003KT 170V240 9999 -RA FEW010 SCT050 13/11 Q1008
Wed 19th June 18:20 pm

  Metar Aviation API Data Provided by https://www.checkwx.com/ PHP scripts by weather34.com ©2019